createdAt,value
2022-12-24T06:46:18.450Z,1.17
2022-12-24T06:48:47.648Z,1.26
2022-12-24T06:51:20.051Z,1.26
2022-12-24T06:53:50.918Z,1.28
2022-12-24T06:56:20.397Z,1.26
2022-12-24T06:58:48.915Z,1.34
2022-12-24T07:01:19.557Z,1.27
2022-12-24T07:03:47.932Z,1.26
2022-12-24T07:06:24.509Z,1.26
2022-12-24T07:08:52.688Z,1.34
2022-12-24T07:11:22.125Z,1.41
2022-12-24T07:13:49.931Z,1.37
2022-12-24T07:16:18.473Z,1.40
2022-12-24T07:18:46.989Z,1.34
2022-12-24T07:21:15.063Z,1.29
2022-12-24T07:23:43.056Z,1.33
2022-12-24T08:05:19.957Z,1.42
2022-12-24T08:07:48.178Z,1.46
2022-12-24T08:10:15.909Z,1.49
2022-12-24T08:12:43.829Z,1.44
2022-12-24T08:15:12.562Z,1.38
2022-12-24T08:17:40.422Z,1.50
2022-12-24T08:20:12.355Z,1.45
2022-12-24T08:22:40.544Z,1.32
2022-12-24T08:25:08.799Z,1.41
2022-12-24T08:27:37.075Z,1.52
2022-12-24T08:30:06.228Z,1.34
2022-12-24T08:32:34.227Z,1.29
2022-12-24T08:35:02.712Z,1.41
2022-12-24T08:37:31.043Z,1.39
2022-12-24T08:39:58.849Z,1.51
2022-12-24T08:42:26.756Z,1.58
2022-12-24T08:44:54.945Z,1.59
2022-12-24T08:47:22.685Z,1.74
2022-12-24T08:49:50.511Z,1.73
2022-12-24T08:52:18.652Z,1.76
2022-12-24T08:54:46.529Z,1.78
2022-12-24T08:57:14.984Z,1.75
2022-12-24T08:59:43.450Z,1.74
2022-12-24T09:02:11.301Z,1.80
2022-12-24T09:04:42.854Z,1.96
2022-12-24T09:07:11.469Z,1.97
2022-12-24T09:09:39.298Z,1.91
2022-12-24T09:45:41.382Z,2.00
2022-12-24T09:48:22.140Z,1.98
2022-12-24T09:51:09.543Z,1.89
2022-12-24T09:53:43.093Z,1.93
2022-12-24T09:56:17.274Z,1.89
2022-12-24T09:58:49.677Z,1.84
2022-12-24T10:01:18.700Z,1.95
2022-12-24T10:03:47.840Z,1.94
2022-12-24T10:06:46.333Z,1.91
2022-12-24T10:09:29.289Z,1.90
2022-12-24T12:56:20.752Z,1.24
2022-12-24T12:58:59.588Z,1.23
2022-12-24T13:01:55.917Z,1.18
2022-12-24T13:05:04.484Z,1.17
2022-12-24T13:08:25.897Z,1.19
2022-12-24T13:11:06.100Z,1.17
2022-12-24T15:40:22.175Z,0.88
2022-12-24T15:42:52.300Z,0.86
2022-12-24T15:45:27.565Z,0.94
2022-12-24T15:48:10.436Z,0.93
2022-12-24T15:51:03.118Z,0.95
2022-12-24T15:53:44.087Z,0.84
2022-12-24T15:56:14.132Z,0.87
2022-12-24T15:58:44.903Z,0.85
2022-12-24T16:01:26.887Z,0.70
2022-12-24T16:03:56.762Z,0.74
2022-12-24T16:06:24.812Z,0.75
2022-12-24T16:08:52.807Z,0.78
2022-12-24T16:11:35.557Z,0.56
2022-12-24T16:14:14.098Z,0.64
2022-12-24T16:16:49.593Z,0.62
2022-12-24T16:19:23.674Z,0.66
2022-12-24T16:21:58.221Z,0.65
2022-12-24T16:24:35.626Z,0.67
2022-12-24T16:27:13.261Z,0.46
2022-12-24T16:29:41.476Z,0.55
2022-12-24T16:32:31.252Z,0.59
2022-12-24T16:34:59.794Z,0.57
2022-12-24T16:37:28.715Z,0.55
2022-12-24T16:39:57.497Z,0.46
2022-12-24T16:42:43.907Z,0.64
2022-12-24T16:45:12.082Z,0.48
2022-12-24T16:47:43.229Z,0.57
2022-12-24T16:50:16.903Z,0.62
2022-12-24T16:52:44.942Z,0.64
2022-12-24T16:55:16.564Z,0.52
2022-12-24T16:57:44.989Z,0.51
2022-12-24T17:14:31.918Z,0.62
2022-12-24T17:17:27.052Z,0.56
2022-12-24T17:20:06.803Z,0.60
2022-12-24T17:23:00.179Z,0.60
2022-12-24T17:25:47.380Z,0.64
2022-12-24T17:28:39.622Z,0.60
2022-12-24T17:31:23.924Z,0.55
2022-12-24T17:34:16.985Z,0.64
2022-12-24T17:37:02.510Z,0.69
2022-12-24T17:39:41.037Z,0.58
2022-12-24T17:42:27.519Z,0.49
2022-12-24T17:45:07.483Z,0.55
2022-12-24T17:47:51.549Z,0.53
2022-12-24T17:50:35.720Z,0.56
2022-12-24T17:53:19.217Z,0.57
2022-12-24T17:56:00.394Z,0.63
2022-12-24T17:58:44.191Z,0.65
2022-12-24T18:01:38.161Z,0.67
2022-12-24T18:04:06.809Z,0.57
2022-12-24T18:06:48.840Z,0.57
2022-12-24T18:09:37.570Z,0.59
2022-12-24T18:12:23.645Z,0.62
2022-12-24T18:15:03.261Z,0.63
2022-12-24T18:17:45.349Z,0.57
2022-12-24T18:20:28.290Z,0.64
2022-12-24T18:23:08.852Z,0.64
2022-12-24T18:25:43.045Z,0.64
2022-12-24T18:28:36.159Z,0.62
2022-12-24T18:31:23.303Z,0.59
2022-12-24T18:34:01.059Z,0.50
2022-12-24T20:41:20.616Z,-0.21
2022-12-24T20:43:50.010Z,-0.23
2022-12-24T20:46:20.028Z,-0.27
2022-12-24T20:48:49.026Z,-0.29
2022-12-24T20:51:24.798Z,-0.35
2022-12-24T20:53:54.816Z,-0.31
2022-12-24T20:56:22.921Z,-0.21
2022-12-24T20:58:51.059Z,-0.17
2022-12-24T21:01:24.702Z,-0.26
2022-12-24T21:03:54.653Z,-0.36
2022-12-24T21:06:25.179Z,-0.24
2022-12-24T21:08:54.041Z,-0.19
2022-12-24T21:11:41.875Z,-0.24
2022-12-24T21:14:11.395Z,-0.32
2022-12-24T21:16:41.474Z,-0.43
2022-12-24T21:19:12.300Z,-0.50
2022-12-24T21:21:40.862Z,-0.49
2022-12-24T21:24:09.994Z,-0.59
2022-12-24T21:26:38.654Z,-0.57
2022-12-24T21:29:09.396Z,-0.55
2022-12-24T21:31:38.041Z,-0.65
2022-12-24T21:34:07.194Z,-0.68
2022-12-24T21:36:35.109Z,-0.78
2022-12-24T21:39:03.159Z,-0.72
2022-12-24T21:41:31.580Z,-0.79
2022-12-24T21:44:02.341Z,-0.85
2022-12-24T21:46:30.339Z,-0.81
2022-12-24T21:49:17.273Z,-0.78
2022-12-24T21:51:47.143Z,-0.73
2022-12-24T21:54:27.396Z,-0.78
2022-12-24T21:57:17.093Z,-0.80
